sensor_id;sensor_type;location;lat;lon;timestamp;temperature;humidity
3794;DHT22;1912;51.358;12.282;2023-07-28T03:46:46;17.80;1.00
3794;DHT22;1912;51.358;12.282;2023-07-28T03:49:12;17.80;1.00
3794;DHT22;1912;51.358;12.282;2023-07-28T03:51:38;17.80;1.00
3794;DHT22;1912;51.358;12.282;2023-07-28T03:54:03;17.80;1.00
3794;DHT22;1912;51.358;12.282;2023-07-28T03:56:29;17.80;1.00
3794;DHT22;1912;51.358;12.282;2023-07-28T03:58:55;17.80;1.00
3794;DHT22;1912;51.358;12.282;2023-07-28T04:01:21;17.80;1.00
3794;DHT22;1912;51.358;12.282;2023-07-28T04:03:47;17.80;1.00
3794;DHT22;1912;51.358;12.282;2023-07-28T04:06:13;17.80;1.00
3794;DHT22;1912;51.358;12.282;2023-07-28T04:08:41;17.70;1.00
3794;DHT22;1912;51.358;12.282;2023-07-28T04:11:07;17.70;1.00
3794;DHT22;1912;51.358;12.282;2023-07-28T04:13:34;17.70;1.00
3794;DHT22;1912;51.358;12.282;2023-07-28T04:16:00;17.70;1.00
3794;DHT22;1912;51.358;12.282;2023-07-28T04:18:25;17.80;1.00
3794;DHT22;1912;51.358;12.282;2023-07-28T04:20:51;17.70;1.00
3794;DHT22;1912;51.358;12.282;2023-07-28T04:23:17;17.70;1.00
3794;DHT22;1912;51.358;12.282;2023-07-28T04:25:43;17.80;1.00
3794;DHT22;1912;51.358;12.282;2023-07-28T04:28:09;17.80;1.00
3794;DHT22;1912;51.358;12.282;2023-07-28T04:30:34;17.80;1.00
3794;DHT22;1912;51.358;12.282;2023-07-28T04:33:00;17.80;1.00
3794;DHT22;1912;51.358;12.282;2023-07-28T04:35:26;17.80;1.00
3794;DHT22;1912;51.358;12.282;2023-07-28T04:37:52;17.80;1.00
3794;DHT22;1912;51.358;12.282;2023-07-28T04:40:18;17.80;1.00
3794;DHT22;1912;51.358;12.282;2023-07-28T04:42:44;17.80;1.00
3794;DHT22;1912;51.358;12.282;2023-07-28T04:45:10;17.80;1.00
3794;DHT22;1912;51.358;12.282;2023-07-28T04:47:36;17.70;1.00
3794;DHT22;1912;51.358;12.282;2023-07-28T04:50:01;17.70;1.00
3794;DHT22;1912;51.358;12.282;2023-07-28T04:52:27;17.60;1.00
3794;DHT22;1912;51.358;12.282;2023-07-28T04:54:53;17.70;1.00
3794;DHT22;1912;51.358;12.282;2023-07-28T04:57:18;17.60;1.00
3794;DHT22;1912;51.358;12.282;2023-07-28T04:59:44;17.70;1.00
3794;DHT22;1912;51.358;12.282;2023-07-28T05:02:10;17.70;1.00
3794;DHT22;1912;51.358;12.282;2023-07-28T05:04:36;17.70;1.00
3794;DHT22;1912;51.358;12.282;2023-07-28T05:07:02;17.70;1.00
3794;DHT22;1912;51.358;12.282;2023-07-28T05:09:29;17.70;1.00
3794;DHT22;1912;51.358;12.282;2023-07-28T05:11:55;17.70;1.00
3794;DHT22;1912;51.358;12.282;2023-07-28T05:14:20;17.70;1.00
3794;DHT22;1912;51.358;12.282;2023-07-28T05:16:46;17.80;1.00
3794;DHT22;1912;51.358;12.282;2023-07-28T05:19:15;17.80;1.00
3794;DHT22;1912;51.358;12.282;2023-07-28T05:21:40;17.90;1.00
3794;DHT22;1912;51.358;12.282;2023-07-28T05:24:06;17.90;1.00
3794;DHT22;1912;51.358;12.282;2023-07-28T05:26:31;17.90;1.00
3794;DHT22;1912;51.358;12.282;2023-07-28T05:28:57;17.90;1.00
3794;DHT22;1912;51.358;12.282;2023-07-28T05:31:23;18.00;1.00
3794;DHT22;1912;51.358;12.282;2023-07-28T05:33:48;18.10;1.00
3794;DHT22;1912;51.358;12.282;2023-07-28T05:36:14;18.00;1.00
3794;DHT22;1912;51.358;12.282;2023-07-28T05:38:40;18.10;1.00
3794;DHT22;1912;51.358;12.282;2023-07-28T05:41:06;18.10;1.00
3794;DHT22;1912;51.358;12.282;2023-07-28T05:43:33;18.10;1.00
3794;DHT22;1912;51.358;12.282;2023-07-28T05:45:59;18.20;1.00
3794;DHT22;1912;51.358;12.282;2023-07-28T05:48:26;18.20;1.00
3794;DHT22;1912;51.358;12.282;2023-07-28T05:50:51;18.20;1.00
3794;DHT22;1912;51.358;12.282;2023-07-28T05:53:22;18.20;1.00
3794;DHT22;1912;51.358;12.282;2023-07-28T05:55:48;18.20;1.00
3794;DHT22;1912;51.358;12.282;2023-07-28T05:58:14;18.20;1.00
3794;DHT22;1912;51.358;12.282;2023-07-28T06:00:40;18.20;1.00
3794;DHT22;1912;51.358;12.282;2023-07-28T06:03:12;18.30;1.00
3794;DHT22;1912;51.358;12.282;2023-07-28T06:05:39;18.30;1.00
3794;DHT22;1912;51.358;12.282;2023-07-28T06:08:05;18.30;1.00
3794;DHT22;1912;51.358;12.282;2023-07-28T06:10:31;18.40;1.00
3794;DHT22;1912;51.358;12.282;2023-07-28T06:12:58;18.50;1.00
3794;DHT22;1912;51.358;12.282;2023-07-28T06:15:23;18.80;1.00
3794;DHT22;1912;51.358;12.282;2023-07-28T06:17:49;19.00;1.00
3794;DHT22;1912;51.358;12.282;2023-07-28T06:20:15;19.00;1.00
3794;DHT22;1912;51.358;12.282;2023-07-28T06:22:40;19.10;1.00
3794;DHT22;1912;51.358;12.282;2023-07-28T06:25:06;19.10;1.00
3794;DHT22;1912;51.358;12.282;2023-07-28T06:27:32;19.10;1.00
3794;DHT22;1912;51.358;12.282;2023-07-28T06:29:58;19.10;1.00
3794;DHT22;1912;51.358;12.282;2023-07-28T06:32:24;19.10;1.00
3794;DHT22;1912;51.358;12.282;2023-07-28T06:34:50;19.10;1.00
3794;DHT22;1912;51.358;12.282;2023-07-28T06:37:17;19.40;1.00
3794;DHT22;1912;51.358;12.282;2023-07-28T06:39:42;19.70;1.00
3794;DHT22;1912;51.358;12.282;2023-07-28T06:42:08;19.40;1.00
3794;DHT22;1912;51.358;12.282;2023-07-28T06:44:34;19.30;1.00
3794;DHT22;1912;51.358;12.282;2023-07-28T06:46:59;19.20;1.00
3794;DHT22;1912;51.358;12.282;2023-07-28T06:49:25;19.30;1.00
3794;DHT22;1912;51.358;12.282;2023-07-28T06:51:51;19.50;1.00
3794;DHT22;1912;51.358;12.282;2023-07-28T06:54:16;19.60;1.00
3794;DHT22;1912;51.358;12.282;2023-07-28T06:56:42;19.50;1.00
3794;DHT22;1912;51.358;12.282;2023-07-28T06:59:07;19.50;1.00
3794;DHT22;1912;51.358;12.282;2023-07-28T07:01:34;19.60;1.00
3794;DHT22;1912;51.358;12.282;2023-07-28T07:04:00;19.80;1.00
3794;DHT22;1912;51.358;12.282;2023-07-28T07:06:26;19.90;1.00
3794;DHT22;1912;51.358;12.282;2023-07-28T07:08:51;20.10;1.00
3794;DHT22;1912;51.358;12.282;2023-07-28T07:11:18;20.20;1.00
3794;DHT22;1912;51.358;12.282;2023-07-28T07:13:43;20.40;1.00
3794;DHT22;1912;51.358;12.282;2023-07-28T07:16:16;20.40;1.00
3794;DHT22;1912;51.358;12.282;2023-07-28T07:18:43;20.30;1.00
3794;DHT22;1912;51.358;12.282;2023-07-28T07:21:09;20.40;1.00
3794;DHT22;1912;51.358;12.282;2023-07-28T07:23:35;20.30;1.00
3794;DHT22;1912;51.358;12.282;2023-07-28T07:26:02;20.20;1.00
3794;DHT22;1912;51.358;12.282;2023-07-28T07:28:27;20.20;1.00
3794;DHT22;1912;51.358;12.282;2023-07-28T07:30:54;20.10;1.00
3794;DHT22;1912;51.358;12.282;2023-07-28T07:33:20;20.20;1.00
3794;DHT22;1912;51.358;12.282;2023-07-28T07:35:46;20.10;1.00
3794;DHT22;1912;51.358;12.282;2023-07-28T07:38:12;20.10;1.00
3794;DHT22;1912;51.358;12.282;2023-07-28T07:40:38;20.20;1.00
3794;DHT22;1912;51.358;12.282;2023-07-28T07:43:04;20.20;1.00
3794;DHT22;1912;51.358;12.282;2023-07-28T07:45:31;20.30;1.00
3794;DHT22;1912;51.358;12.282;2023-07-28T07:47:58;20.40;1.00
3794;DHT22;1912;51.358;12.282;2023-07-28T07:50:26;20.40;1.00
3794;DHT22;1912;51.358;12.282;2023-07-28T07:52:52;20.50;1.00
3794;DHT22;1912;51.358;12.282;2023-07-28T07:55:17;20.70;1.00
3794;DHT22;1912;51.358;12.282;2023-07-28T07:57:43;20.90;1.00
3794;DHT22;1912;51.358;12.282;2023-07-28T08:00:09;21.30;1.00
3794;DHT22;1912;51.358;12.282;2023-07-28T08:02:36;21.30;1.00
3794;DHT22;1912;51.358;12.282;2023-07-28T08:05:02;21.30;1.00
3794;DHT22;1912;51.358;12.282;2023-07-28T08:07:28;21.50;1.00
3794;DHT22;1912;51.358;12.282;2023-07-28T08:09:53;21.60;1.00
3794;DHT22;1912;51.358;12.282;2023-07-28T08:12:20;21.50;1.00
3794;DHT22;1912;51.358;12.282;2023-07-28T08:14:45;21.50;1.00
3794;DHT22;1912;51.358;12.282;2023-07-28T08:17:11;21.50;1.00
3794;DHT22;1912;51.358;12.282;2023-07-28T08:19:37;21.50;1.00
3794;DHT22;1912;51.358;12.282;2023-07-28T08:22:03;21.40;1.00
3794;DHT22;1912;51.358;12.282;2023-07-28T08:24:29;21.40;1.00
3794;DHT22;1912;51.358;12.282;2023-07-28T08:26:55;21.30;1.00
3794;DHT22;1912;51.358;12.282;2023-07-28T08:29:21;21.30;1.00
3794;DHT22;1912;51.358;12.282;2023-07-28T08:31:46;21.60;1.00
3794;DHT22;1912;51.358;12.282;2023-07-28T08:34:12;21.50;1.00
3794;DHT22;1912;51.358;12.282;2023-07-28T08:36:38;21.80;1.00
3794;DHT22;1912;51.358;12.282;2023-07-28T08:39:04;21.50;1.00
3794;DHT22;1912;51.358;12.282;2023-07-28T08:41:30;21.60;1.00
3794;DHT22;1912;51.358;12.282;2023-07-28T08:43:56;21.80;1.00
3794;DHT22;1912;51.358;12.282;2023-07-28T08:46:22;22.00;1.00
3794;DHT22;1912;51.358;12.282;2023-07-28T08:48:48;22.50;1.00
3794;DHT22;1912;51.358;12.282;2023-07-28T08:51:14;22.80;1.00
3794;DHT22;1912;51.358;12.282;2023-07-28T08:53:40;23.10;1.00
3794;DHT22;1912;51.358;12.282;2023-07-28T08:56:06;23.20;1.00
3794;DHT22;1912;51.358;12.282;2023-07-28T08:58:32;23.30;1.00
3794;DHT22;1912;51.358;12.282;2023-07-28T09:00:58;23.60;1.00
3794;DHT22;1912;51.358;12.282;2023-07-28T09:03:27;23.50;1.00
3794;DHT22;1912;51.358;12.282;2023-07-28T09:05:59;23.60;1.00
3794;DHT22;1912;51.358;12.282;2023-07-28T09:08:26;23.90;1.00
3794;DHT22;1912;51.358;12.282;2023-07-28T09:10:52;24.10;1.00
3794;DHT22;1912;51.358;12.282;2023-07-28T09:13:19;23.90;1.00
3794;DHT22;1912;51.358;12.282;2023-07-28T09:15:46;24.10;1.00
3794;DHT22;1912;51.358;12.282;2023-07-28T09:18:14;24.40;1.00
3794;DHT22;1912;51.358;12.282;2023-07-28T09:20:42;24.00;1.00
3794;DHT22;1912;51.358;12.282;2023-07-28T09:23:09;23.80;1.00
3794;DHT22;1912;51.358;12.282;2023-07-28T09:25:36;24.20;1.00
3794;DHT22;1912;51.358;12.282;2023-07-28T09:28:03;24.40;1.00
3794;DHT22;1912;51.358;12.282;2023-07-28T09:30:44;24.30;1.00
3794;DHT22;1912;51.358;12.282;2023-07-28T09:33:29;24.30;1.00
3794;DHT22;1912;51.358;12.282;2023-07-28T09:35:55;24.90;1.00
3794;DHT22;1912;51.358;12.282;2023-07-28T09:38:22;24.60;1.00
3794;DHT22;1912;51.358;12.282;2023-07-28T09:40:48;24.30;1.00
3794;DHT22;1912;51.358;12.282;2023-07-28T09:43:14;23.80;1.00
3794;DHT22;1912;51.358;12.282;2023-07-28T09:45:42;23.50;1.00
3794;DHT22;1912;51.358;12.282;2023-07-28T09:48:10;23.50;1.00
3794;DHT22;1912;51.358;12.282;2023-07-28T09:50:38;23.50;1.00
3794;DHT22;1912;51.358;12.282;2023-07-28T09:53:08;23.30;1.00
3794;DHT22;1912;51.358;12.282;2023-07-28T09:55:38;23.30;1.00
3794;DHT22;1912;51.358;12.282;2023-07-28T09:58:09;23.30;1.00
3794;DHT22;1912;51.358;12.282;2023-07-28T10:00:37;23.30;1.00
3794;DHT22;1912;51.358;12.282;2023-07-28T10:03:04;23.30;1.00
3794;DHT22;1912;51.358;12.282;2023-07-28T10:05:30;23.20;1.00
3794;DHT22;1912;51.358;12.282;2023-07-28T10:07:56;23.40;1.00
3794;DHT22;1912;51.358;12.282;2023-07-28T10:10:22;23.40;1.00
3794;DHT22;1912;51.358;12.282;2023-07-28T10:12:50;23.70;1.00
3794;DHT22;1912;51.358;12.282;2023-07-28T10:15:18;24.00;1.00
3794;DHT22;1912;51.358;12.282;2023-07-28T10:17:46;23.60;1.00
3794;DHT22;1912;51.358;12.282;2023-07-28T10:20:28;23.50;1.00
3794;DHT22;1912;51.358;12.282;2023-07-28T10:23:17;23.90;1.00
3794;DHT22;1912;51.358;12.282;2023-07-28T10:25:45;24.20;1.00
3794;DHT22;1912;51.358;12.282;2023-07-28T10:28:29;24.10;1.00
3794;DHT22;1912;51.358;12.282;2023-07-28T10:30:57;24.00;1.00
3794;DHT22;1912;51.358;12.282;2023-07-28T10:33:35;24.10;1.00
3794;DHT22;1912;51.358;12.282;2023-07-28T10:36:39;24.10;1.00
3794;DHT22;1912;51.358;12.282;2023-07-28T10:41:29;24.20;1.00
3794;DHT22;1912;51.358;12.282;2023-07-28T10:43:58;24.60;1.00
3794;DHT22;1912;51.358;12.282;2023-07-28T10:46:24;25.40;1.00
3794;DHT22;1912;51.358;12.282;2023-07-28T10:48:50;25.50;1.00
3794;DHT22;1912;51.358;12.282;2023-07-28T10:51:26;25.10;1.00
3794;DHT22;1912;51.358;12.282;2023-07-28T10:53:58;24.90;1.00
3794;DHT22;1912;51.358;12.282;2023-07-28T10:56:25;24.40;1.00
3794;DHT22;1912;51.358;12.282;2023-07-28T10:58:58;24.10;1.00
3794;DHT22;1912;51.358;12.282;2023-07-28T11:01:31;23.90;1.00
3794;DHT22;1912;51.358;12.282;2023-07-28T11:04:14;23.90;1.00
3794;DHT22;1912;51.358;12.282;2023-07-28T11:06:43;23.60;1.00
3794;DHT22;1912;51.358;12.282;2023-07-28T11:09:10;23.50;1.00
3794;DHT22;1912;51.358;12.282;2023-07-28T11:11:40;23.50;1.00
3794;DHT22;1912;51.358;12.282;2023-07-28T11:14:07;23.50;1.00
3794;DHT22;1912;51.358;12.282;2023-07-28T11:16:38;23.60;1.00
3794;DHT22;1912;51.358;12.282;2023-07-28T11:19:11;23.80;1.00
3794;DHT22;1912;51.358;12.282;2023-07-28T11:21:42;23.90;1.00
3794;DHT22;1912;51.358;12.282;2023-07-28T11:24:09;23.90;1.00
3794;DHT22;1912;51.358;12.282;2023-07-28T11:26:36;23.80;1.00
3794;DHT22;1912;51.358;12.282;2023-07-28T11:29:05;24.00;1.00
3794;DHT22;1912;51.358;12.282;2023-07-28T11:31:31;24.80;1.00
3794;DHT22;1912;51.358;12.282;2023-07-28T11:33:58;24.90;1.00
3794;DHT22;1912;51.358;12.282;2023-07-28T11:36:28;24.80;1.00
3794;DHT22;1912;51.358;12.282;2023-07-28T11:38:57;25.00;1.00
3794;DHT22;1912;51.358;12.282;2023-07-28T11:41:25;25.20;1.00
3794;DHT22;1912;51.358;12.282;2023-07-28T11:43:51;25.20;1.00
3794;DHT22;1912;51.358;12.282;2023-07-28T11:46:37;25.20;1.00
3794;DHT22;1912;51.358;12.282;2023-07-28T11:49:17;25.00;1.00
3794;DHT22;1912;51.358;12.282;2023-07-28T11:51:49;24.90;1.00
3794;DHT22;1912;51.358;12.282;2023-07-28T11:54:17;24.70;1.00
3794;DHT22;1912;51.358;12.282;2023-07-28T11:56:48;24.60;1.00
3794;DHT22;1912;51.358;12.282;2023-07-28T11:59:18;24.60;1.00
3794;DHT22;1912;51.358;12.282;2023-07-28T12:04:25;24.90;1.00
3794;DHT22;1912;51.358;12.282;2023-07-28T12:07:13;25.80;1.00
3794;DHT22;1912;51.358;12.282;2023-07-28T12:12:20;26.80;1.00
3794;DHT22;1912;51.358;12.282;2023-07-28T12:14:47;27.10;1.00
3794;DHT22;1912;51.358;12.282;2023-07-28T12:17:17;27.10;1.00
3794;DHT22;1912;51.358;12.282;2023-07-28T12:20:04;26.60;1.00
3794;DHT22;1912;51.358;12.282;2023-07-28T12:22:37;26.10;1.00
3794;DHT22;1912;51.358;12.282;2023-07-28T12:25:03;25.90;1.00
3794;DHT22;1912;51.358;12.282;2023-07-28T12:27:30;25.90;1.00
3794;DHT22;1912;51.358;12.282;2023-07-28T12:29:56;25.80;1.00
3794;DHT22;1912;51.358;12.282;2023-07-28T12:32:22;25.90;1.00
3794;DHT22;1912;51.358;12.282;2023-07-28T12:34:49;26.00;1.00
3794;DHT22;1912;51.358;12.282;2023-07-28T12:37:15;26.10;1.00
3794;DHT22;1912;51.358;12.282;2023-07-28T12:39:42;26.10;1.00
3794;DHT22;1912;51.358;12.282;2023-07-28T12:42:09;26.00;1.00
3794;DHT22;1912;51.358;12.282;2023-07-28T12:44:36;25.60;1.00
3794;DHT22;1912;51.358;12.282;2023-07-28T12:47:03;25.70;1.00
3794;DHT22;1912;51.358;12.282;2023-07-28T12:49:29;25.70;1.00
3794;DHT22;1912;51.358;12.282;2023-07-28T12:51:59;26.20;1.00
3794;DHT22;1912;51.358;12.282;2023-07-28T12:54:25;27.10;1.00
3794;DHT22;1912;51.358;12.282;2023-07-28T12:56:54;27.50;1.00
3794;DHT22;1912;51.358;12.282;2023-07-28T12:59:20;27.70;1.00
3794;DHT22;1912;51.358;12.282;2023-07-28T13:01:46;27.90;1.00
3794;DHT22;1912;51.358;12.282;2023-07-28T13:04:12;27.40;1.00
3794;DHT22;1912;51.358;12.282;2023-07-28T13:06:38;27.30;1.00
3794;DHT22;1912;51.358;12.282;2023-07-28T13:09:04;27.10;1.00
3794;DHT22;1912;51.358;12.282;2023-07-28T13:11:30;26.70;1.00
3794;DHT22;1912;51.358;12.282;2023-07-28T13:13:56;27.20;1.00
3794;DHT22;1912;51.358;12.282;2023-07-28T13:16:21;27.60;1.00
3794;DHT22;1912;51.358;12.282;2023-07-28T13:18:47;27.50;1.00
3794;DHT22;1912;51.358;12.282;2023-07-28T13:21:13;27.30;1.00
3794;DHT22;1912;51.358;12.282;2023-07-28T13:23:39;27.40;1.00
3794;DHT22;1912;51.358;12.282;2023-07-28T13:26:05;27.40;1.00
3794;DHT22;1912;51.358;12.282;2023-07-28T13:28:32;27.70;1.00
3794;DHT22;1912;51.358;12.282;2023-07-28T13:30:59;27.70;1.00
3794;DHT22;1912;51.358;12.282;2023-07-28T13:33:25;27.70;1.00
3794;DHT22;1912;51.358;12.282;2023-07-28T13:35:50;27.50;1.00
3794;DHT22;1912;51.358;12.282;2023-07-28T13:38:16;27.70;1.00
3794;DHT22;1912;51.358;12.282;2023-07-28T13:40:41;27.70;1.00
3794;DHT22;1912;51.358;12.282;2023-07-28T13:43:07;28.50;1.00
3794;DHT22;1912;51.358;12.282;2023-07-28T13:45:33;28.60;1.00
3794;DHT22;1912;51.358;12.282;2023-07-28T13:47:59;28.50;1.00
3794;DHT22;1912;51.358;12.282;2023-07-28T13:50:24;28.20;1.00
3794;DHT22;1912;51.358;12.282;2023-07-28T13:52:50;28.50;1.00
3794;DHT22;1912;51.358;12.282;2023-07-28T13:55:16;28.50;1.00
3794;DHT22;1912;51.358;12.282;2023-07-28T13:57:41;28.60;1.00
3794;DHT22;1912;51.358;12.282;2023-07-28T14:00:08;28.60;1.00
3794;DHT22;1912;51.358;12.282;2023-07-28T14:02:38;28.80;1.00
3794;DHT22;1912;51.358;12.282;2023-07-28T14:05:05;28.90;1.00
3794;DHT22;1912;51.358;12.282;2023-07-28T14:07:31;28.90;1.00
3794;DHT22;1912;51.358;12.282;2023-07-28T14:09:57;29.00;1.00
3794;DHT22;1912;51.358;12.282;2023-07-28T14:12:23;28.90;1.00
3794;DHT22;1912;51.358;12.282;2023-07-28T14:14:48;29.30;1.00
3794;DHT22;1912;51.358;12.282;2023-07-28T14:17:17;29.30;1.00
3794;DHT22;1912;51.358;12.282;2023-07-28T14:19:43;29.10;1.00
3794;DHT22;1912;51.358;12.282;2023-07-28T14:22:09;29.00;1.00
3794;DHT22;1912;51.358;12.282;2023-07-28T14:24:34;28.80;1.00
3794;DHT22;1912;51.358;12.282;2023-07-28T14:27:00;29.10;1.00
3794;DHT22;1912;51.358;12.282;2023-07-28T14:29:26;29.20;1.00
3794;DHT22;1912;51.358;12.282;2023-07-28T14:31:52;29.30;1.00
3794;DHT22;1912;51.358;12.282;2023-07-28T14:34:18;29.10;1.00
3794;DHT22;1912;51.358;12.282;2023-07-28T14:36:43;28.90;1.00
3794;DHT22;1912;51.358;12.282;2023-07-28T14:39:09;28.70;1.00
3794;DHT22;1912;51.358;12.282;2023-07-28T14:41:35;29.00;1.00
3794;DHT22;1912;51.358;12.282;2023-07-28T14:44:01;29.20;1.00
3794;DHT22;1912;51.358;12.282;2023-07-28T14:46:27;29.30;1.00
3794;DHT22;1912;51.358;12.282;2023-07-28T14:48:53;29.00;1.00
3794;DHT22;1912;51.358;12.282;2023-07-28T14:51:20;28.60;1.00
3794;DHT22;1912;51.358;12.282;2023-07-28T14:53:46;28.60;1.00
3794;DHT22;1912;51.358;12.282;2023-07-28T14:56:12;28.80;1.00
3794;DHT22;1912;51.358;12.282;2023-07-28T14:58:39;28.60;1.00
3794;DHT22;1912;51.358;12.282;2023-07-28T15:01:10;28.50;1.00
3794;DHT22;1912;51.358;12.282;2023-07-28T15:03:36;28.30;1.00
3794;DHT22;1912;51.358;12.282;2023-07-28T15:06:03;28.10;1.00
3794;DHT22;1912;51.358;12.282;2023-07-28T15:08:29;28.20;1.00
3794;DHT22;1912;51.358;12.282;2023-07-28T15:10:56;28.00;1.00
3794;DHT22;1912;51.358;12.282;2023-07-28T15:13:22;27.80;1.00
3794;DHT22;1912;51.358;12.282;2023-07-28T15:15:48;27.90;1.00
3794;DHT22;1912;51.358;12.282;2023-07-28T15:18:14;28.10;1.00
3794;DHT22;1912;51.358;12.282;2023-07-28T15:20:41;28.10;1.00
3794;DHT22;1912;51.358;12.282;2023-07-28T15:23:07;27.90;1.00
3794;DHT22;1912;51.358;12.282;2023-07-28T15:25:33;27.90;1.00
3794;DHT22;1912;51.358;12.282;2023-07-28T15:27:58;27.70;1.00
3794;DHT22;1912;51.358;12.282;2023-07-28T15:30:24;27.70;1.00
3794;DHT22;1912;51.358;12.282;2023-07-28T15:32:50;28.00;1.00
3794;DHT22;1912;51.358;12.282;2023-07-28T15:35:16;28.10;1.00
3794;DHT22;1912;51.358;12.282;2023-07-28T15:37:42;27.80;1.00
3794;DHT22;1912;51.358;12.282;2023-07-28T15:40:08;28.10;1.00
3794;DHT22;1912;51.358;12.282;2023-07-28T15:42:34;28.30;1.00
3794;DHT22;1912;51.358;12.282;2023-07-28T15:44:59;28.20;1.00
3794;DHT22;1912;51.358;12.282;2023-07-28T15:47:25;28.20;1.00
3794;DHT22;1912;51.358;12.282;2023-07-28T15:49:52;28.40;1.00
3794;DHT22;1912;51.358;12.282;2023-07-28T15:52:19;28.10;1.00
3794;DHT22;1912;51.358;12.282;2023-07-28T15:54:45;28.10;1.00
3794;DHT22;1912;51.358;12.282;2023-07-28T15:57:11;27.90;1.00
3794;DHT22;1912;51.358;12.282;2023-07-28T15:59:38;27.80;1.00
3794;DHT22;1912;51.358;12.282;2023-07-28T16:02:04;28.10;1.00
3794;DHT22;1912;51.358;12.282;2023-07-28T16:04:30;28.20;1.00
3794;DHT22;1912;51.358;12.282;2023-07-28T16:06:56;28.30;1.00
3794;DHT22;1912;51.358;12.282;2023-07-28T16:09:21;28.40;1.00
3794;DHT22;1912;51.358;12.282;2023-07-28T16:11:47;28.20;1.00
3794;DHT22;1912;51.358;12.282;2023-07-28T16:14:12;27.90;1.00
3794;DHT22;1912;51.358;12.282;2023-07-28T16:16:39;27.70;1.00
3794;DHT22;1912;51.358;12.282;2023-07-28T16:19:05;27.90;1.00
3794;DHT22;1912;51.358;12.282;2023-07-28T16:21:32;28.10;1.00
3794;DHT22;1912;51.358;12.282;2023-07-28T16:23:58;28.10;1.00
3794;DHT22;1912;51.358;12.282;2023-07-28T16:26:25;28.00;1.00
3794;DHT22;1912;51.358;12.282;2023-07-28T16:28:50;28.10;1.00
3794;DHT22;1912;51.358;12.282;2023-07-28T16:31:16;27.70;1.00
3794;DHT22;1912;51.358;12.282;2023-07-28T16:33:42;27.70;1.00
3794;DHT22;1912;51.358;12.282;2023-07-28T16:36:07;27.80;1.00
3794;DHT22;1912;51.358;12.282;2023-07-28T16:38:33;27.80;1.00
3794;DHT22;1912;51.358;12.282;2023-07-28T16:40:58;27.90;1.00
3794;DHT22;1912;51.358;12.282;2023-07-28T16:43:24;27.80;1.00
3794;DHT22;1912;51.358;12.282;2023-07-28T16:45:50;27.70;1.00
3794;DHT22;1912;51.358;12.282;2023-07-28T16:48:16;27.70;1.00
3794;DHT22;1912;51.358;12.282;2023-07-28T16:50:42;27.40;1.00
3794;DHT22;1912;51.358;12.282;2023-07-28T16:53:07;27.50;1.00
3794;DHT22;1912;51.358;12.282;2023-07-28T16:55:33;27.50;1.00
3794;DHT22;1912;51.358;12.282;2023-07-28T16:57:59;27.50;1.00
3794;DHT22;1912;51.358;12.282;2023-07-28T17:00:24;27.60;1.00
3794;DHT22;1912;51.358;12.282;2023-07-28T17:02:50;27.80;1.00
3794;DHT22;1912;51.358;12.282;2023-07-28T17:05:16;27.50;1.00
3794;DHT22;1912;51.358;12.282;2023-07-28T17:07:43;27.30;1.00
3794;DHT22;1912;51.358;12.282;2023-07-28T17:10:09;27.10;1.00
3794;DHT22;1912;51.358;12.282;2023-07-28T17:12:34;26.80;1.00
3794;DHT22;1912;51.358;12.282;2023-07-28T17:15:00;26.70;1.00
3794;DHT22;1912;51.358;12.282;2023-07-28T17:17:26;26.40;1.00
3794;DHT22;1912;51.358;12.282;2023-07-28T17:19:51;26.30;1.00
3794;DHT22;1912;51.358;12.282;2023-07-28T17:22:17;26.30;1.00
3794;DHT22;1912;51.358;12.282;2023-07-28T17:24:43;26.30;1.00
3794;DHT22;1912;51.358;12.282;2023-07-28T17:27:08;26.20;1.00
3794;DHT22;1912;51.358;12.282;2023-07-28T17:29:34;26.00;1.00
3794;DHT22;1912;51.358;12.282;2023-07-28T17:32:00;25.90;1.00
3794;DHT22;1912;51.358;12.282;2023-07-28T17:34:25;25.80;1.00
3794;DHT22;1912;51.358;12.282;2023-07-28T17:36:51;25.70;1.00
3794;DHT22;1912;51.358;12.282;2023-07-28T17:39:17;25.70;1.00
3794;DHT22;1912;51.358;12.282;2023-07-28T17:41:43;25.60;1.00
3794;DHT22;1912;51.358;12.282;2023-07-28T17:44:10;25.60;1.00
3794;DHT22;1912;51.358;12.282;2023-07-28T17:46:36;25.50;1.00
3794;DHT22;1912;51.358;12.282;2023-07-28T17:49:01;25.50;1.00
3794;DHT22;1912;51.358;12.282;2023-07-28T17:51:27;25.40;1.00
3794;DHT22;1912;51.358;12.282;2023-07-28T17:53:53;25.30;1.00
3794;DHT22;1912;51.358;12.282;2023-07-28T17:56:21;25.40;1.00
3794;DHT22;1912;51.358;12.282;2023-07-28T17:58:47;25.40;1.00
3794;DHT22;1912;51.358;12.282;2023-07-28T18:01:12;25.30;1.00
3794;DHT22;1912;51.358;12.282;2023-07-28T18:03:38;25.30;1.00
3794;DHT22;1912;51.358;12.282;2023-07-28T18:06:04;25.20;1.00
3794;DHT22;1912;51.358;12.282;2023-07-28T18:08:29;25.20;1.00
3794;DHT22;1912;51.358;12.282;2023-07-28T18:10:55;25.10;1.00
3794;DHT22;1912;51.358;12.282;2023-07-28T18:13:21;25.10;1.00
3794;DHT22;1912;51.358;12.282;2023-07-28T18:15:46;25.10;1.00
3794;DHT22;1912;51.358;12.282;2023-07-28T18:18:13;25.00;1.00
3794;DHT22;1912;51.358;12.282;2023-07-28T18:20:39;24.90;1.00
3794;DHT22;1912;51.358;12.282;2023-07-28T18:23:04;24.90;1.00
3794;DHT22;1912;51.358;12.282;2023-07-28T18:25:30;24.90;1.00
3794;DHT22;1912;51.358;12.282;2023-07-28T18:27:56;24.80;1.00
3794;DHT22;1912;51.358;12.282;2023-07-28T18:30:22;24.70;1.00
3794;DHT22;1912;51.358;12.282;2023-07-28T18:32:47;24.70;1.00
3794;DHT22;1912;51.358;12.282;2023-07-28T18:35:14;24.60;1.00
3794;DHT22;1912;51.358;12.282;2023-07-28T18:37:40;24.50;1.00
3794;DHT22;1912;51.358;12.282;2023-07-28T18:40:06;24.50;1.00
3794;DHT22;1912;51.358;12.282;2023-07-28T18:42:32;24.40;1.00
3794;DHT22;1912;51.358;12.282;2023-07-28T18:44:58;24.40;1.00
3794;DHT22;1912;51.358;12.282;2023-07-28T18:47:24;24.40;1.00
3794;DHT22;1912;51.358;12.282;2023-07-28T18:49:50;24.30;1.00
3794;DHT22;1912;51.358;12.282;2023-07-28T18:52:16;24.20;1.00
3794;DHT22;1912;51.358;12.282;2023-07-28T18:54:41;24.20;1.00
3794;DHT22;1912;51.358;12.282;2023-07-28T18:57:07;24.10;1.00
3794;DHT22;1912;51.358;12.282;2023-07-28T18:59:33;24.00;1.00
3794;DHT22;1912;51.358;12.282;2023-07-28T19:01:59;23.80;1.00
3794;DHT22;1912;51.358;12.282;2023-07-28T19:04:25;23.70;1.00
3794;DHT22;1912;51.358;12.282;2023-07-28T19:06:51;23.60;1.00
3794;DHT22;1912;51.358;12.282;2023-07-28T19:09:17;23.50;1.00
3794;DHT22;1912;51.358;12.282;2023-07-28T19:11:42;23.40;1.00
3794;DHT22;1912;51.358;12.282;2023-07-28T19:14:08;23.30;1.00
3794;DHT22;1912;51.358;12.282;2023-07-28T19:16:34;23.20;1.00
3794;DHT22;1912;51.358;12.282;2023-07-28T19:19:00;23.20;1.00
3794;DHT22;1912;51.358;12.282;2023-07-28T19:21:25;23.00;1.00
3794;DHT22;1912;51.358;12.282;2023-07-28T19:23:51;22.90;1.00
3794;DHT22;1912;51.358;12.282;2023-07-28T19:26:17;22.90;1.00
3794;DHT22;1912;51.358;12.282;2023-07-28T19:28:43;22.80;1.00
3794;DHT22;1912;51.358;12.282;2023-07-28T19:31:09;22.80;1.00
3794;DHT22;1912;51.358;12.282;2023-07-28T19:33:35;22.80;1.00
3794;DHT22;1912;51.358;12.282;2023-07-28T19:36:01;22.80;1.00
3794;DHT22;1912;51.358;12.282;2023-07-28T19:38:27;22.70;1.00
3794;DHT22;1912;51.358;12.282;2023-07-28T19:40:54;22.60;1.00
3794;DHT22;1912;51.358;12.282;2023-07-28T19:43:20;22.60;1.00
3794;DHT22;1912;51.358;12.282;2023-07-28T19:45:46;22.60;1.00
3794;DHT22;1912;51.358;12.282;2023-07-28T19:48:12;22.50;1.00
3794;DHT22;1912;51.358;12.282;2023-07-28T19:50:41;22.40;1.00
3794;DHT22;1912;51.358;12.282;2023-07-28T19:53:07;22.30;1.00